Terminal Aerodrome Forecast
Issued by NWS

Home | Current Version | Previous Version | Text Only | Print | Product List | Glossary On
Versions: 1 2 3 4 5 6 7 8 9 10 11 12 13 14 15 16 17 18 19 20 21 22 23 24 25 26
000
FTUS44 KBMX 251200 AAA
TAFANB
TAF AMD
KANB 251235Z 2513/2612 00000KT 1/4SM FG VV002
     FM251330 00000KT 1SM BR OVC002
     FM251400 00000KT P6SM SKC
     FM251600 28005KT P6SM SCT040
     FM260100 00000KT P6SM SKC=

USA.gov is the U.S. government's official web portal to all federal, state and local government web resources and services.